createdAt,value
2018-05-31T00:01:22.359Z,29.95
2018-05-31T00:03:50.019Z,29.37
2018-05-31T00:06:22.594Z,32.78
2018-05-31T00:08:49.649Z,28.20
2018-05-31T00:11:16.800Z,33.08
2018-05-31T00:13:44.662Z,29.42
2018-05-31T00:16:11.717Z,28.08
2018-05-31T00:18:38.758Z,27.05
2018-05-31T00:21:05.808Z,32.40
2018-05-31T00:23:32.865Z,28.70
2018-05-31T00:25:59.904Z,34.47
2018-05-31T00:28:27.874Z,31.60
2018-05-31T00:30:54.822Z,36.53
2018-05-31T00:33:21.871Z,28.30
2018-05-31T00:35:48.924Z,29.45
2018-05-31T00:38:15.970Z,33.28
2018-05-31T00:40:43.016Z,33.83
2018-05-31T00:43:10.070Z,30.12
2018-05-31T00:45:37.112Z,32.30
2018-05-31T00:48:04.163Z,31.23
2018-05-31T00:50:31.315Z,35.58
2018-05-31T00:52:58.467Z,35.72
2018-05-31T00:55:31.760Z,33.17
2018-05-31T00:57:58.814Z,35.53
2018-05-31T01:00:25.804Z,38.80
2018-05-31T01:02:52.807Z,34.58
2018-05-31T01:05:20.361Z,35.55
2018-05-31T01:07:47.417Z,40.08
2018-05-31T01:10:14.411Z,37.30
2018-05-31T01:12:41.468Z,44.03
2018-05-31T01:15:08.565Z,36.75
2018-05-31T01:17:35.606Z,39.40
2018-05-31T01:20:02.656Z,35.85
2018-05-31T01:22:29.708Z,39.97
2018-05-31T01:24:56.716Z,39.78
2018-05-31T01:27:23.801Z,36.55
2018-05-31T01:29:50.855Z,39.13
2018-05-31T01:32:17.899Z,41.05
2018-05-31T01:34:45.710Z,40.88
2018-05-31T01:37:12.815Z,40.12
2018-05-31T01:39:39.863Z,38.58
2018-05-31T01:42:07.117Z,36.17
2018-05-31T01:44:34.165Z,39.25
2018-05-31T01:47:02.545Z,40.90
2018-05-31T01:49:29.599Z,40.55
2018-05-31T01:51:56.585Z,41.63
2018-05-31T01:54:23.899Z,37.08
2018-05-31T01:56:51.053Z,40.35
2018-05-31T01:59:18.094Z,47.65
2018-05-31T02:01:45.662Z,41.85
2018-05-31T02:04:12.704Z,44.90
2018-05-31T02:06:40.163Z,40.58
2018-05-31T02:09:07.211Z,42.45
2018-05-31T02:11:34.263Z,37.95
2018-05-31T02:14:01.309Z,44.00
2018-05-31T02:16:29.430Z,41.35
2018-05-31T02:18:57.561Z,43.87
2018-05-31T02:21:24.606Z,40.95
2018-05-31T02:23:51.652Z,38.60
2018-05-31T02:26:18.805Z,42.40
2018-05-31T02:28:45.859Z,42.62
2018-05-31T02:31:13.010Z,40.00
2018-05-31T02:33:40.057Z,40.80
2018-05-31T02:36:08.028Z,40.40
2018-05-31T02:38:35.079Z,39.58
2018-05-31T02:41:02.123Z,42.10
2018-05-31T02:43:29.173Z,36.85
2018-05-31T02:45:56.566Z,37.13
2018-05-31T02:48:23.575Z,40.65
2018-05-31T02:50:50.623Z,43.45
2018-05-31T02:53:18.627Z,42.78
2018-05-31T02:55:45.640Z,40.38
2018-05-31T02:58:12.691Z,39.63
2018-05-31T03:00:40.762Z,41.47
2018-05-31T03:03:09.141Z,37.90
2018-05-31T03:05:36.195Z,38.10
2018-05-31T03:08:03.546Z,42.25
2018-05-31T03:10:30.594Z,37.13
2018-05-31T03:12:57.648Z,39.65
2018-05-31T03:15:24.691Z,37.63
2018-05-31T03:17:51.643Z,35.63
2018-05-31T03:20:20.686Z,40.85
2018-05-31T03:22:47.680Z,36.50
2018-05-31T03:25:15.653Z,39.15
2018-05-31T03:27:42.643Z,36.58
2018-05-31T03:30:10.778Z,39.33
2018-05-31T03:32:37.821Z,37.75
2018-05-31T03:35:04.869Z,33.97
2018-05-31T03:37:32.685Z,37.38
2018-05-31T03:39:59.689Z,33.30
2018-05-31T03:42:26.733Z,33.25
2018-05-31T03:44:54.298Z,32.15
2018-05-31T03:47:21.344Z,33.38
2018-05-31T03:49:48.389Z,36.13
2018-05-31T03:52:15.644Z,33.05
2018-05-31T03:54:42.692Z,30.23
2018-05-31T03:57:09.747Z,30.00
2018-05-31T03:59:37.095Z,29.95
2018-05-31T04:02:04.970Z,26.77
2018-05-31T04:04:32.012Z,28.00
2018-05-31T04:07:02.957Z,31.08
2018-05-31T04:09:30.616Z,26.27
2018-05-31T04:11:57.665Z,29.60
2018-05-31T04:14:24.718Z,25.85
2018-05-31T04:16:52.993Z,29.30
2018-05-31T04:19:20.039Z,24.98
2018-05-31T04:21:47.092Z,26.85
2018-05-31T04:24:14.136Z,27.02
2018-05-31T04:26:41.287Z,27.15
2018-05-31T04:29:08.335Z,28.77
2018-05-31T04:31:35.389Z,28.02
2018-05-31T04:34:02.540Z,24.73
2018-05-31T04:36:29.585Z,29.25
2018-05-31T04:38:56.642Z,23.05
2018-05-31T04:41:23.686Z,21.70
2018-05-31T04:43:50.731Z,23.92
2018-05-31T04:46:17.779Z,24.35
2018-05-31T04:48:44.831Z,26.62
2018-05-31T04:51:11.875Z,20.98
2018-05-31T04:53:38.958Z,26.02
2018-05-31T04:56:05.979Z,21.42
2018-05-31T04:58:33.026Z,22.75
2018-05-31T05:01:01.400Z,25.17
2018-05-31T05:03:28.353Z,22.25
2018-05-31T05:05:55.505Z,21.42
2018-05-31T05:08:22.547Z,20.12
2018-05-31T05:10:49.596Z,23.33
2018-05-31T05:13:17.878Z,21.37
2018-05-31T05:15:45.043Z,23.05
2018-05-31T05:18:12.687Z,19.50
2018-05-31T05:20:39.737Z,23.17
2018-05-31T05:23:06.789Z,22.65
2018-05-31T05:25:33.834Z,19.98
2018-05-31T05:28:01.416Z,23.17
2018-05-31T05:30:29.170Z,21.62
2018-05-31T05:32:56.943Z,17.90
2018-05-31T05:35:25.251Z,20.50
2018-05-31T05:37:52.357Z,21.70
2018-05-31T05:40:19.402Z,26.40
2018-05-31T05:42:46.963Z,22.35
2018-05-31T05:45:14.318Z,18.10
2018-05-31T05:47:41.521Z,20.85
2018-05-31T05:50:08.680Z,19.35
2018-05-31T05:52:35.613Z,20.80
2018-05-31T05:55:04.252Z,20.20
2018-05-31T05:57:31.302Z,20.15
2018-05-31T05:59:58.664Z,18.65
2018-05-31T06:02:25.707Z,18.98
2018-05-31T06:04:52.753Z,19.90
2018-05-31T06:07:19.809Z,18.17
2018-05-31T06:09:47.574Z,21.20
2018-05-31T06:12:14.617Z,20.40
2018-05-31T06:14:41.666Z,24.37
2018-05-31T06:17:08.720Z,22.58
2018-05-31T06:19:35.767Z,23.10
2018-05-31T06:22:02.764Z,22.10
2018-05-31T06:24:29.912Z,20.80
2018-05-31T06:26:56.859Z,19.02
2018-05-31T06:29:24.319Z,20.65
2018-05-31T06:31:51.318Z,21.58
2018-05-31T06:34:18.365Z,19.52
2018-05-31T06:36:45.409Z,18.85
2018-05-31T06:39:12.972Z,26.60
2018-05-31T06:41:40.021Z,27.52
2018-05-31T06:44:07.173Z,28.52
2018-05-31T06:46:34.062Z,26.40
2018-05-31T06:49:01.219Z,27.60
2018-05-31T06:51:28.218Z,24.52
2018-05-31T06:53:55.265Z,29.25
2018-05-31T06:56:22.346Z,24.05
2018-05-31T06:58:49.770Z,28.12
2018-05-31T07:01:16.845Z,26.58
2018-05-31T07:03:44.072Z,26.83
2018-05-31T07:06:11.222Z,25.55
2018-05-31T07:08:38.214Z,29.27
2018-05-31T07:11:05.218Z,28.35
2018-05-31T07:13:32.271Z,25.48
2018-05-31T07:15:59.355Z,23.58
2018-05-31T07:18:26.363Z,27.50
2018-05-31T07:20:54.230Z,29.02
2018-05-31T07:23:22.659Z,29.05
2018-05-31T07:25:49.660Z,27.25
2018-05-31T07:28:17.527Z,27.55
2018-05-31T07:30:44.580Z,28.55
2018-05-31T07:33:11.629Z,28.75
2018-05-31T07:35:38.672Z,25.90
2018-05-31T07:38:06.748Z,25.55
2018-05-31T07:40:33.896Z,27.15
2018-05-31T07:43:01.258Z,28.27
2018-05-31T07:45:28.304Z,24.52
2018-05-31T07:47:55.963Z,27.33
2018-05-31T07:50:23.223Z,30.37
2018-05-31T07:52:50.265Z,27.62
2018-05-31T07:55:17.216Z,28.33
2018-05-31T07:57:44.369Z,30.10
2018-05-31T08:00:12.441Z,30.25
2018-05-31T08:02:40.406Z,30.95
2018-05-31T08:05:07.455Z,30.85
2018-05-31T08:07:34.508Z,33.28
2018-05-31T08:10:02.170Z,28.58
2018-05-31T08:12:29.215Z,31.20
2018-05-31T08:14:56.273Z,29.30
2018-05-31T08:17:23.313Z,29.92
2018-05-31T08:19:51.693Z,30.10
2018-05-31T08:22:18.745Z,38.20
2018-05-31T08:24:45.794Z,30.98
2018-05-31T08:27:12.839Z,33.60
2018-05-31T08:29:39.990Z,31.08
2018-05-31T08:32:07.143Z,29.08
2018-05-31T08:34:34.187Z,35.67
2018-05-31T08:37:02.264Z,29.48
2018-05-31T08:39:29.207Z,30.58
2018-05-31T08:41:57.392Z,33.80
2018-05-31T08:44:24.327Z,31.55
2018-05-31T08:46:51.381Z,29.55
2018-05-31T08:49:18.440Z,29.00
2018-05-31T08:51:45.688Z,29.87
2018-05-31T08:54:12.838Z,25.70
2018-05-31T08:56:39.993Z,29.12
2018-05-31T08:59:24.746Z,28.60
2018-05-31T09:01:51.998Z,27.33
2018-05-31T09:04:19.563Z,27.27
2018-05-31T09:06:46.605Z,31.25
2018-05-31T09:09:13.759Z,28.33
2018-05-31T09:11:42.270Z,31.98
2018-05-31T09:14:23.834Z,29.55
2018-05-31T09:16:50.878Z,27.98
2018-05-31T09:19:18.541Z,26.52
2018-05-31T09:24:30.763Z,27.58
2018-05-31T09:26:57.812Z,34.13
2018-05-31T09:29:24.963Z,31.87
2018-05-31T09:31:53.445Z,28.02
2018-05-31T09:34:20.442Z,27.02
2018-05-31T09:36:48.566Z,29.83
2018-05-31T09:39:15.622Z,29.55
2018-05-31T09:41:42.663Z,28.50
2018-05-31T09:44:09.814Z,24.95
2018-05-31T09:46:37.918Z,25.98
2018-05-31T09:49:05.603Z,23.90
2018-05-31T09:51:32.700Z,28.05
2018-05-31T09:54:00.261Z,27.08
2018-05-31T09:56:27.799Z,24.77
2018-05-31T09:58:55.662Z,23.02
2018-05-31T10:01:22.793Z,21.95
2018-05-31T10:03:50.612Z,25.60
2018-05-31T10:06:17.553Z,28.05
2018-05-31T10:08:44.599Z,24.63
2018-05-31T10:11:11.853Z,25.25
2018-05-31T10:13:38.901Z,26.62
2018-05-31T10:16:07.997Z,19.65
2018-05-31T10:18:35.408Z,24.17
2018-05-31T10:21:02.407Z,22.92
2018-05-31T10:23:30.163Z,16.45
2018-05-31T10:25:58.345Z,15.38
2018-05-31T10:28:26.624Z,20.20
2018-05-31T10:30:53.709Z,19.85
2018-05-31T10:33:21.848Z,19.95
2018-05-31T10:35:49.306Z,18.50
2018-05-31T10:38:16.351Z,17.33
2018-05-31T10:40:43.501Z,16.05
2018-05-31T10:43:12.189Z,15.93
2018-05-31T10:45:39.237Z,16.75
2018-05-31T10:48:08.948Z,16.62
2018-05-31T10:50:35.996Z,17.80
2018-05-31T10:55:37.907Z,24.00
2018-05-31T10:58:26.845Z,17.77
2018-05-31T11:01:05.978Z,16.33
2018-05-31T11:09:02.342Z,19.02
2018-05-31T11:11:31.235Z,18.48
2018-05-31T11:14:01.360Z,19.40
2018-05-31T11:16:28.407Z,17.58
2018-05-31T11:18:55.454Z,22.58
2018-05-31T11:21:22.505Z,17.15
2018-05-31T11:23:49.508Z,24.15
2018-05-31T11:26:16.702Z,19.62
2018-05-31T11:28:44.057Z,16.00
2018-05-31T11:31:11.206Z,18.30
2018-05-31T11:33:38.262Z,16.08
2018-05-31T11:36:05.303Z,19.42
2018-05-31T11:38:32.351Z,16.85
2018-05-31T11:43:57.989Z,19.98
